METAR Formatted Surface Weather Observation
Issued by NWS

Home | Current Version | Previous Version | Text Only | Print | Product List | Glossary On
Versions: 1 2 3 4 5 6 7 8 9 10 11 12 13
000
SAUS44 KLIX 212058
MTRBVE
METAR KBVE 212051Z AUTO 17007KT 10SM CLR 31/26 A3000 RMK AO2 SLP159
T03110261 58011 $



USA.gov is the U.S. government's official web portal to all federal, state and local government web resources and services.